createdAt,value
2023-04-21T00:01:41.005Z,10.90
2023-04-21T00:04:09.905Z,10.90
2023-04-21T00:06:37.348Z,10.90
2023-04-21T00:09:05.497Z,10.90
2023-04-21T00:11:32.388Z,10.90
2023-04-21T00:13:59.251Z,10.90
2023-04-21T00:16:26.136Z,10.90
2023-04-21T00:18:52.991Z,10.90
2023-04-21T00:21:19.817Z,10.90
2023-04-21T00:23:47.459Z,10.90
2023-04-21T00:26:14.285Z,10.90
2023-04-21T00:28:43.830Z,10.90
2023-04-21T00:31:10.720Z,10.90
2023-04-21T00:33:37.746Z,10.80
2023-04-21T00:36:04.945Z,10.80
2023-04-21T00:38:31.794Z,10.90
2023-04-21T00:40:58.761Z,10.80
2023-04-21T00:43:28.306Z,10.80
2023-04-21T00:45:55.292Z,10.80
2023-04-21T00:48:22.172Z,10.80
2023-04-21T00:50:49.062Z,10.90
2023-04-21T00:53:16.416Z,10.80
2023-04-21T00:55:45.801Z,11.40
2023-04-21T00:58:12.777Z,10.80
2023-04-21T01:00:39.796Z,10.80
2023-04-21T01:03:08.037Z,10.80
2023-04-21T01:08:04.452Z,10.80
2023-04-21T01:10:31.340Z,10.80
2023-04-21T01:12:58.124Z,10.80
2023-04-21T01:15:27.419Z,10.80
2023-04-21T01:17:54.388Z,10.80
2023-04-21T01:20:21.408Z,10.80
2023-04-21T01:22:49.963Z,10.80
2023-04-21T01:25:18.853Z,10.80
2023-04-21T01:27:46.044Z,10.80
2023-04-21T01:30:13.099Z,10.80
2023-04-21T01:32:39.964Z,10.80
2023-04-21T01:35:08.465Z,10.80
2023-04-21T01:37:37.936Z,10.80
2023-04-21T01:40:07.548Z,10.80
2023-04-21T01:42:36.478Z,10.80
2023-04-21T01:45:03.721Z,10.80
2023-04-21T01:47:30.955Z,10.80
2023-04-21T01:49:57.832Z,10.80
2023-04-21T01:52:24.749Z,10.80
2023-04-21T01:54:53.721Z,10.70
2023-04-21T01:57:21.071Z,10.70
2023-04-21T01:59:49.513Z,10.70
2023-04-21T02:02:16.700Z,10.70
2023-04-21T02:04:43.598Z,10.70
2023-04-21T02:07:10.456Z,10.70
2023-04-21T02:09:37.301Z,10.70
2023-04-21T02:12:04.390Z,10.70
2023-04-21T02:14:31.426Z,10.70
2023-04-21T02:16:58.232Z,10.70
2023-04-21T02:19:25.223Z,10.70
2023-04-21T02:21:54.893Z,10.70
2023-04-21T02:24:22.346Z,10.70
2023-04-21T02:26:49.218Z,10.70
2023-04-21T02:29:16.129Z,10.70
2023-04-21T02:31:56.648Z,10.70
2023-04-21T02:34:27.973Z,10.70
2023-04-21T02:39:22.217Z,10.80
2023-04-21T02:41:49.026Z,10.80
2023-04-21T02:44:16.048Z,10.80
2023-04-21T02:46:43.340Z,10.80
2023-04-21T02:49:11.216Z,10.80
2023-04-21T02:51:38.196Z,10.80
2023-04-21T02:54:05.282Z,10.80
2023-04-21T02:56:34.538Z,10.80
2023-04-21T02:59:01.436Z,10.80
2023-04-21T03:01:28.240Z,10.80
2023-04-21T03:03:55.288Z,10.80
2023-04-21T03:06:22.309Z,10.80
2023-04-21T03:08:49.126Z,10.80
2023-04-21T03:11:15.943Z,10.80
2023-04-21T03:13:42.794Z,10.80
2023-04-21T03:16:09.944Z,10.70
2023-04-21T03:21:04.993Z,10.60
2023-04-21T03:23:31.863Z,10.60
2023-04-21T03:25:58.732Z,10.50
2023-04-21T03:28:25.590Z,10.50
2023-04-21T03:30:52.509Z,10.40
2023-04-21T03:33:19.338Z,10.40
2023-04-21T03:35:46.295Z,10.30
2023-04-21T03:38:13.331Z,10.30
2023-04-21T03:40:40.235Z,10.20
2023-04-21T03:43:07.345Z,10.20
2023-04-21T03:45:37.328Z,10.20
2023-04-21T03:48:04.619Z,10.10
2023-04-21T03:50:31.686Z,10.10
2023-04-21T03:52:58.478Z,10.00
2023-04-21T03:55:25.428Z,10.00
2023-04-21T03:57:52.262Z,10.00
2023-04-21T04:00:19.230Z,10.00
2023-04-21T04:02:46.143Z,10.00
2023-04-21T04:05:13.378Z,10.00
2023-04-21T04:07:40.373Z,10.00
2023-04-21T04:10:07.262Z,10.00
2023-04-21T04:12:34.223Z,10.80
2023-04-21T04:17:28.401Z,9.90
2023-04-21T04:19:55.281Z,9.90
2023-04-21T04:22:22.147Z,9.90
2023-04-21T04:24:48.946Z,9.90
2023-04-21T04:27:15.780Z,9.90
2023-04-21T04:29:44.117Z,10.00
2023-04-21T04:32:11.256Z,10.00
2023-04-21T04:34:38.328Z,10.10
2023-04-21T04:37:06.779Z,10.10
2023-04-21T04:39:33.814Z,10.20
2023-04-21T04:42:01.462Z,10.30
2023-04-21T04:44:28.470Z,10.30
2023-04-21T04:46:55.798Z,10.40
2023-04-21T04:49:24.191Z,10.40
2023-04-21T04:51:51.267Z,10.40
2023-04-21T04:54:18.468Z,10.50
2023-04-21T04:56:45.552Z,10.50
2023-04-21T04:59:12.596Z,10.50
2023-04-21T05:01:40.707Z,10.50
2023-04-21T05:06:35.511Z,10.50
2023-04-21T05:09:02.304Z,10.50
2023-04-21T05:11:29.184Z,10.50
2023-04-21T05:13:56.100Z,10.50
2023-04-21T05:16:23.041Z,10.60
2023-04-21T05:21:27.856Z,10.60
2023-04-21T05:23:59.058Z,10.60
2023-04-21T05:26:27.922Z,10.60
2023-04-21T05:28:58.789Z,10.70
2023-04-21T05:31:53.851Z,10.70
2023-04-21T05:34:21.030Z,10.70
2023-04-21T05:36:49.056Z,10.80
2023-04-21T05:39:17.730Z,10.80
2023-04-21T05:41:44.592Z,10.80
2023-04-21T05:44:11.364Z,10.80
2023-04-21T05:46:38.271Z,10.80
2023-04-21T05:49:05.253Z,10.80
2023-04-21T05:51:32.172Z,10.70
2023-04-21T05:53:59.093Z,10.80
2023-04-21T05:56:25.995Z,10.80
2023-04-21T05:58:52.801Z,10.80
2023-04-21T06:01:20.002Z,10.80
2023-04-21T06:03:50.144Z,10.80
2023-04-21T06:06:17.870Z,10.80
2023-04-21T06:08:44.699Z,11.50
2023-04-21T06:11:11.632Z,10.80
2023-04-21T06:16:07.979Z,10.90
2023-04-21T06:18:34.902Z,10.90
2023-04-21T06:21:01.812Z,11.30
2023-04-21T06:23:28.740Z,10.90
2023-04-21T06:26:04.784Z,10.90
2023-04-21T06:28:32.763Z,10.90
2023-04-21T06:31:01.166Z,10.90
2023-04-21T06:33:28.441Z,11.00
2023-04-21T06:35:55.254Z,11.00
2023-04-21T06:38:22.414Z,11.00
2023-04-21T06:40:49.329Z,11.10
2023-04-21T06:43:16.376Z,11.10
2023-04-21T06:45:43.477Z,11.10
2023-04-21T06:48:10.349Z,11.20
2023-04-21T06:50:37.158Z,11.20
2023-04-21T06:53:04.075Z,11.30
2023-04-21T06:55:30.946Z,11.30
2023-04-21T06:57:57.720Z,11.40
2023-04-21T07:00:24.612Z,11.40
2023-04-21T07:02:51.544Z,11.50
2023-04-21T07:05:18.582Z,11.50
2023-04-21T07:07:45.488Z,11.50
2023-04-21T07:10:12.280Z,11.60
2023-04-21T07:12:39.058Z,11.60
2023-04-21T07:15:06.532Z,12.40
2023-04-21T07:17:33.402Z,11.60
2023-04-21T07:20:00.568Z,10.50
2023-04-21T07:22:27.334Z,11.70
2023-04-21T07:24:54.126Z,11.70
2023-04-21T07:27:20.944Z,11.80
2023-04-21T07:29:47.719Z,11.80
2023-04-21T07:32:14.715Z,11.90
2023-04-21T07:34:41.574Z,11.90
2023-04-21T07:37:08.397Z,12.00
2023-04-21T07:39:35.558Z,12.00
2023-04-21T07:42:02.614Z,12.00
2023-04-21T07:44:29.502Z,12.00
2023-04-21T07:46:56.520Z,12.00
2023-04-21T07:49:23.551Z,12.10
2023-04-21T07:51:50.594Z,12.10
2023-04-21T07:54:17.367Z,12.10
2023-04-21T07:56:44.283Z,12.10
2023-04-21T07:59:11.330Z,12.10
2023-04-21T08:01:38.127Z,12.10
2023-04-21T08:04:05.162Z,12.10
2023-04-21T08:06:33.504Z,12.20
2023-04-21T08:09:00.489Z,12.20
2023-04-21T08:11:28.619Z,12.20
2023-04-21T08:13:55.468Z,12.30
2023-04-21T08:16:22.330Z,12.30
2023-04-21T08:18:49.453Z,12.30
2023-04-21T08:21:16.298Z,12.40
2023-04-21T08:23:43.081Z,12.30
2023-04-21T08:26:09.859Z,12.30
2023-04-21T08:28:37.235Z,12.40
2023-04-21T08:31:04.888Z,12.40
2023-04-21T08:33:31.843Z,12.50
2023-04-21T08:36:05.530Z,12.50
2023-04-21T08:38:35.612Z,12.50
2023-04-21T08:41:04.294Z,12.60
2023-04-21T08:43:31.347Z,12.60
2023-04-21T08:45:59.553Z,12.60
2023-04-21T08:48:27.874Z,12.60
2023-04-21T08:50:54.802Z,12.70
2023-04-21T08:53:21.762Z,12.60
2023-04-21T08:56:07.689Z,12.70
2023-04-21T08:58:38.209Z,12.80
2023-04-21T09:01:05.635Z,12.80
2023-04-21T09:03:32.740Z,12.80
2023-04-21T09:06:01.963Z,12.80
2023-04-21T09:08:30.384Z,12.90
2023-04-21T09:10:58.414Z,12.90
2023-04-21T09:13:33.366Z,12.90
2023-04-21T09:16:01.448Z,12.90
2023-04-21T09:18:36.895Z,12.90
2023-04-21T09:21:17.096Z,12.90
2023-04-21T09:23:46.817Z,13.00
2023-04-21T09:26:14.668Z,13.00
2023-04-21T09:28:45.981Z,13.20
2023-04-21T09:31:20.057Z,13.20
2023-04-21T09:33:57.897Z,13.30
2023-04-21T09:36:29.065Z,13.40
2023-04-21T09:41:32.609Z,13.40
2023-04-21T09:44:04.479Z,13.40
2023-04-21T09:46:35.091Z,13.40
2023-04-21T09:49:02.069Z,13.30
2023-04-21T09:51:49.032Z,13.50
2023-04-21T09:54:29.567Z,13.40
2023-04-21T09:57:00.047Z,13.40
2023-04-21T09:59:34.791Z,13.40
2023-04-21T10:02:05.502Z,13.50
2023-04-21T10:04:34.640Z,13.50
2023-04-21T10:07:02.289Z,13.70
2023-04-21T10:09:36.888Z,13.70
2023-04-21T10:12:04.488Z,13.70
2023-04-21T10:14:31.944Z,13.70
2023-04-21T10:17:10.125Z,13.80
2023-04-21T10:19:47.387Z,13.80
2023-04-21T10:22:14.260Z,14.00
2023-04-21T10:24:42.860Z,14.00
2023-04-21T10:27:30.419Z,13.90
2023-04-21T10:29:58.794Z,13.90
2023-04-21T10:33:04.482Z,13.90
2023-04-21T10:36:00.980Z,14.00
2023-04-21T10:38:44.219Z,14.00
2023-04-21T10:41:31.805Z,14.10
2023-04-21T10:44:14.661Z,14.20
2023-04-21T10:46:49.030Z,14.30
2023-04-21T10:49:23.080Z,14.30
2023-04-21T10:52:07.979Z,14.40
2023-04-21T10:54:42.072Z,14.50
2023-04-21T10:57:11.612Z,14.50
2023-04-21T10:59:39.135Z,14.40
2023-04-21T11:02:12.433Z,14.40
2023-04-21T11:04:45.084Z,14.50
2023-04-21T11:07:14.401Z,14.50
2023-04-21T11:09:42.414Z,14.50
2023-04-21T11:12:18.154Z,14.60
2023-04-21T11:14:50.094Z,14.60
2023-04-21T11:17:19.692Z,14.60
2023-04-21T11:19:54.092Z,14.50
2023-04-21T11:22:25.683Z,14.40
2023-04-21T11:24:56.773Z,14.50
2023-04-21T11:27:26.288Z,14.50
2023-04-21T11:29:53.177Z,14.50
2023-04-21T11:32:19.971Z,14.60
2023-04-21T11:34:47.627Z,14.80
2023-04-21T11:37:26.885Z,14.60
2023-04-21T11:40:00.986Z,14.50
2023-04-21T11:42:28.534Z,14.60
2023-04-21T11:44:56.798Z,14.60
2023-04-21T11:47:25.545Z,15.10
2023-04-21T11:49:57.123Z,14.80
2023-04-21T11:52:32.877Z,14.70
2023-04-21T11:55:16.102Z,14.70
2023-04-21T11:57:42.936Z,15.00
2023-04-21T12:00:11.940Z,15.00
2023-04-21T12:02:39.125Z,15.00
2023-04-21T12:05:10.562Z,14.90
2023-04-21T12:07:46.275Z,14.90
2023-04-21T12:10:17.098Z,15.00
2023-04-21T12:12:45.776Z,15.20
2023-04-21T12:15:17.951Z,15.20
2023-04-21T12:17:45.366Z,15.30
2023-04-21T12:20:13.141Z,15.20
2023-04-21T12:22:39.926Z,15.10
2023-04-21T12:25:07.034Z,15.30
2023-04-21T12:27:33.911Z,15.30
2023-04-21T12:30:01.029Z,15.20
2023-04-21T12:32:27.817Z,15.30
2023-04-21T12:34:54.692Z,15.20
2023-04-21T12:37:21.986Z,15.40
2023-04-21T12:39:48.809Z,15.40
2023-04-21T12:42:15.977Z,15.30
2023-04-21T12:44:42.920Z,15.30
2023-04-21T12:47:10.315Z,15.40
2023-04-21T12:49:38.027Z,15.40
2023-04-21T12:52:06.288Z,15.30
2023-04-21T12:54:33.843Z,15.30
2023-04-21T12:57:00.837Z,15.40
2023-04-21T12:59:28.169Z,15.50
2023-04-21T13:01:55.458Z,15.60
2023-04-21T13:04:22.465Z,15.80
2023-04-21T13:06:49.354Z,15.80
2023-04-21T13:09:17.123Z,15.90
2023-04-21T13:11:43.899Z,15.80
2023-04-21T13:14:10.885Z,15.90
2023-04-21T13:16:37.986Z,15.90
2023-04-21T13:19:05.044Z,15.90
2023-04-21T13:21:32.743Z,15.90
2023-04-21T13:23:59.729Z,15.90
2023-04-21T13:26:27.075Z,16.00
2023-04-21T13:28:54.021Z,16.00
2023-04-21T13:31:21.097Z,16.00
2023-04-21T13:33:48.150Z,16.20
2023-04-21T13:36:15.166Z,16.10
2023-04-21T13:38:42.592Z,16.20
2023-04-21T13:41:09.462Z,16.10
2023-04-21T13:43:36.288Z,16.20
2023-04-21T13:46:03.230Z,16.20
2023-04-21T13:48:30.506Z,16.20
2023-04-21T13:50:57.807Z,16.10
2023-04-21T13:53:24.866Z,16.10
2023-04-21T13:55:52.850Z,16.10
2023-04-21T13:58:19.710Z,16.20
2023-04-21T14:00:46.483Z,16.20
2023-04-21T14:03:14.214Z,16.20
2023-04-21T14:05:41.476Z,16.20
2023-04-21T14:08:08.626Z,16.10
2023-04-21T14:10:35.455Z,16.00
2023-04-21T14:13:48.068Z,16.10
2023-04-21T14:16:26.608Z,16.10
2023-04-21T14:18:53.636Z,16.20
2023-04-21T14:21:20.440Z,16.20
2023-04-21T14:23:47.323Z,16.20
2023-04-21T14:26:14.308Z,16.20
2023-04-21T14:28:41.642Z,16.10
2023-04-21T14:31:08.707Z,16.10
2023-04-21T14:33:35.656Z,16.20
2023-04-21T14:36:02.734Z,16.20
2023-04-21T14:38:30.730Z,16.30
2023-04-21T14:40:57.624Z,16.40
2023-04-21T14:43:24.563Z,16.50
2023-04-21T14:45:51.486Z,15.90
2023-04-21T14:48:18.376Z,16.50
2023-04-21T14:50:45.396Z,16.30
2023-04-21T14:53:12.416Z,16.20
2023-04-21T14:55:39.251Z,16.10
2023-04-21T14:58:06.023Z,16.00
2023-04-21T15:00:34.996Z,16.00
2023-04-21T15:03:02.556Z,16.10
2023-04-21T15:05:29.585Z,16.10
2023-04-21T15:07:56.595Z,16.30
2023-04-21T15:10:23.673Z,16.30
2023-04-21T15:12:50.692Z,16.20
2023-04-21T15:15:17.676Z,16.20
2023-04-21T15:17:45.213Z,16.20
2023-04-21T15:20:12.106Z,16.10
2023-04-21T15:22:39.141Z,16.00
2023-04-21T15:25:07.003Z,15.90
2023-04-21T15:27:34.847Z,15.90
2023-04-21T15:30:03.969Z,16.00
2023-04-21T15:32:30.763Z,16.10
2023-04-21T15:34:57.722Z,16.20
2023-04-21T15:37:25.808Z,16.10
2023-04-21T15:39:53.146Z,16.10
2023-04-21T15:42:20.622Z,16.10
2023-04-21T15:44:47.464Z,16.00
2023-04-21T15:47:16.809Z,16.00
2023-04-21T15:49:43.678Z,15.90
2023-04-21T15:52:11.064Z,16.00
2023-04-21T15:54:38.399Z,16.00
2023-04-21T15:57:05.940Z,16.00
2023-04-21T15:59:32.910Z,16.00
2023-04-21T16:01:59.933Z,15.90
2023-04-21T16:04:27.084Z,15.90
2023-04-21T16:06:54.049Z,15.90
2023-04-21T16:09:21.561Z,15.80
2023-04-21T16:11:50.119Z,15.80
2023-04-21T16:14:17.581Z,16.00
2023-04-21T16:16:45.344Z,15.90
2023-04-21T16:19:12.346Z,15.90
2023-04-21T16:21:40.153Z,15.90
2023-04-21T16:24:08.093Z,15.90
2023-04-21T16:26:36.322Z,15.90
2023-04-21T16:29:03.335Z,16.00
2023-04-21T16:31:30.803Z,16.00
2023-04-21T16:33:59.932Z,16.00
2023-04-21T16:36:28.351Z,15.90
2023-04-21T16:38:58.381Z,15.80
2023-04-21T16:41:25.507Z,15.90
2023-04-21T16:43:52.413Z,15.80
2023-04-21T16:46:19.352Z,15.80
2023-04-21T16:48:46.482Z,15.90
2023-04-21T16:51:13.492Z,15.90
2023-04-21T16:53:41.959Z,15.80
2023-04-21T16:56:09.139Z,15.80
2023-04-21T16:58:37.439Z,16.00
2023-04-21T17:01:04.946Z,16.10
2023-04-21T17:03:31.904Z,16.20
2023-04-21T17:05:58.803Z,16.30
2023-04-21T17:08:25.544Z,16.40
2023-04-21T17:10:52.300Z,16.40
2023-04-21T17:13:19.269Z,16.40
2023-04-21T17:15:46.407Z,16.50
2023-04-21T17:18:13.381Z,16.40
2023-04-21T17:20:41.332Z,16.40
2023-04-21T17:23:08.224Z,16.30
2023-04-21T17:25:38.106Z,16.30
2023-04-21T17:28:05.439Z,16.40
2023-04-21T17:30:32.227Z,16.20
2023-04-21T17:33:12.724Z,16.20
2023-04-21T17:35:55.850Z,16.10
2023-04-21T17:38:29.588Z,16.10
2023-04-21T17:40:56.689Z,15.30
2023-04-21T17:43:23.494Z,15.80
2023-04-21T17:45:51.376Z,15.80
2023-04-21T17:48:18.288Z,15.80
2023-04-21T17:50:45.504Z,15.80
2023-04-21T17:53:12.490Z,15.80
2023-04-21T17:55:39.881Z,15.70
2023-04-21T17:58:07.173Z,15.70
2023-04-21T18:00:35.047Z,16.80
2023-04-21T18:03:02.092Z,15.60
2023-04-21T18:05:29.493Z,15.60
2023-04-21T18:08:45.943Z,15.50
2023-04-21T18:11:12.796Z,15.50
2023-04-21T18:13:39.571Z,15.50
2023-04-21T18:16:06.772Z,15.50
2023-04-21T18:18:33.547Z,15.40
2023-04-21T18:21:00.412Z,15.30
2023-04-21T18:23:27.386Z,15.30
2023-04-21T18:25:54.182Z,15.30
2023-04-21T18:28:21.039Z,15.30
2023-04-21T18:30:47.872Z,15.40
2023-04-21T18:33:14.752Z,15.40
2023-04-21T18:35:41.977Z,15.40
2023-04-21T18:38:10.506Z,15.40
2023-04-21T18:40:37.796Z,15.50
2023-04-21T18:43:05.295Z,15.40
2023-04-21T18:45:32.719Z,15.40
2023-04-21T18:47:59.857Z,15.40
2023-04-21T18:50:30.107Z,15.40
2023-04-21T18:52:58.052Z,15.40
2023-04-21T18:55:25.057Z,15.40
2023-04-21T18:57:52.155Z,15.40
2023-04-21T19:00:19.315Z,15.30
2023-04-21T19:02:48.863Z,15.30
2023-04-21T19:05:16.319Z,15.30
2023-04-21T19:07:43.227Z,15.20
2023-04-21T19:10:10.623Z,15.20
2023-04-21T19:12:38.264Z,15.10
2023-04-21T19:15:06.216Z,15.10
2023-04-21T19:17:33.021Z,15.10
2023-04-21T19:20:00.215Z,15.10
2023-04-21T19:22:30.933Z,15.00
2023-04-21T19:24:57.852Z,15.00
2023-04-21T19:27:24.836Z,15.00
2023-04-21T19:29:51.668Z,15.00
2023-04-21T19:32:18.570Z,15.00
2023-04-21T19:34:45.337Z,15.00
2023-04-21T19:37:13.712Z,15.10
2023-04-21T19:39:40.484Z,15.00
2023-04-21T19:42:08.307Z,15.00
2023-04-21T19:44:35.755Z,15.00
2023-04-21T19:47:02.789Z,15.00
2023-04-21T19:49:29.738Z,15.00
2023-04-21T19:51:56.675Z,15.00
2023-04-21T19:54:23.496Z,15.00
2023-04-21T19:56:50.411Z,15.00
2023-04-21T19:59:17.345Z,15.10
2023-04-21T20:01:44.294Z,15.10
2023-04-21T20:04:12.401Z,15.00
2023-04-21T20:06:39.919Z,15.00
2023-04-21T20:09:07.058Z,15.00
2023-04-21T20:11:34.207Z,15.00
2023-04-21T20:14:01.125Z,15.00
2023-04-21T20:16:28.131Z,15.00
2023-04-21T20:18:58.376Z,15.00
2023-04-21T20:21:25.308Z,15.00
2023-04-21T20:23:52.184Z,15.00
2023-04-21T20:26:19.010Z,14.90
2023-04-21T20:28:45.813Z,14.90
2023-04-21T20:31:13.377Z,14.90
2023-04-21T20:33:40.150Z,14.90
2023-04-21T20:36:09.737Z,14.90
2023-04-21T20:38:38.351Z,14.90
2023-04-21T20:41:05.186Z,14.80
2023-04-21T20:43:33.194Z,14.80
2023-04-21T20:46:04.253Z,14.80
2023-04-21T20:48:31.178Z,14.70
2023-04-21T20:50:58.136Z,14.70
2023-04-21T20:53:25.066Z,14.70
2023-04-21T20:55:52.305Z,14.70
2023-04-21T20:58:19.609Z,14.60
2023-04-21T21:00:46.580Z,14.60
2023-04-21T21:03:13.736Z,14.60
2023-04-21T21:05:41.391Z,14.60
2023-04-21T21:08:09.049Z,14.50
2023-04-21T21:10:35.844Z,14.50
2023-04-21T21:13:02.929Z,14.50
2023-04-21T21:15:32.868Z,14.50
2023-04-21T21:17:59.982Z,14.50
2023-04-21T21:20:26.781Z,14.50
2023-04-21T21:22:53.765Z,14.50
2023-04-21T21:25:20.631Z,14.50
2023-04-21T21:27:47.515Z,14.40
2023-04-21T21:30:14.501Z,14.40
2023-04-21T21:32:41.373Z,14.40
2023-04-21T21:35:09.512Z,14.40
2023-04-21T21:37:37.219Z,14.40
2023-04-21T21:40:06.005Z,14.40
2023-04-21T21:42:32.833Z,14.40
2023-04-21T21:44:59.920Z,14.30
2023-04-21T21:47:26.995Z,14.30
2023-04-21T21:49:55.909Z,14.30
2023-04-21T21:52:22.849Z,14.30
2023-04-21T21:54:49.754Z,14.20
2023-04-21T21:57:16.846Z,14.20
2023-04-21T21:59:44.096Z,14.20
2023-04-21T22:02:10.999Z,14.20
2023-04-21T22:04:38.087Z,14.20
2023-04-21T22:07:05.121Z,14.20
2023-04-21T22:09:32.473Z,14.20
2023-04-21T22:11:59.446Z,14.20
2023-04-21T22:14:26.327Z,14.10
2023-04-21T22:16:53.499Z,14.10
2023-04-21T22:19:20.770Z,14.10
2023-04-21T22:21:47.889Z,14.10
2023-04-21T22:24:15.409Z,14.10
2023-04-21T22:26:43.851Z,14.10
2023-04-21T22:29:10.666Z,14.00
2023-04-21T22:31:38.053Z,14.00
2023-04-21T22:34:05.183Z,14.00
2023-04-21T22:36:32.629Z,14.00
2023-04-21T22:38:59.818Z,14.00
2023-04-21T22:41:27.578Z,14.00
2023-04-21T22:43:54.546Z,14.00
2023-04-21T22:46:21.422Z,14.00
2023-04-21T22:48:48.790Z,13.90
2023-04-21T22:51:15.592Z,13.90
2023-04-21T22:53:42.497Z,13.90
2023-04-21T22:56:09.294Z,13.90
2023-04-21T22:58:36.269Z,13.90
2023-04-21T23:01:03.310Z,13.90
2023-04-21T23:03:31.200Z,13.90
2023-04-21T23:05:58.790Z,13.80
2023-04-21T23:08:25.823Z,13.80
2023-04-21T23:10:52.823Z,13.90
2023-04-21T23:13:19.627Z,13.80
2023-04-21T23:15:46.428Z,13.80
2023-04-21T23:18:13.287Z,13.80
2023-04-21T23:20:40.230Z,13.80
2023-04-21T23:23:07.009Z,13.90
2023-04-21T23:25:34.052Z,13.80
2023-04-21T23:28:00.954Z,13.80
2023-04-21T23:30:27.914Z,13.80
2023-04-21T23:32:54.888Z,13.80
2023-04-21T23:35:21.750Z,13.80
2023-04-21T23:37:48.801Z,13.80
2023-04-21T23:40:15.724Z,13.80
2023-04-21T23:42:42.579Z,13.70
2023-04-21T23:45:14.628Z,13.80
2023-04-21T23:47:41.926Z,13.70
2023-04-21T23:50:09.158Z,13.70
2023-04-21T23:52:36.369Z,13.70
2023-04-21T23:55:03.417Z,13.70
2023-04-21T23:57:30.221Z,13.70
2023-04-21T23:59:57.033Z,13.70
